sensor_id;sensor_type;location;lat;lon;timestamp;P1;durP1;ratioP1;P2;durP2;ratioP2
21497;SDS011;10910;50.932;0.246;2022-09-12T00:00:27;0.50;;;0.50;;
21497;SDS011;10910;50.932;0.246;2022-09-12T00:02:53;0.63;;;0.63;;
21497;SDS011;10910;50.932;0.246;2022-09-12T00:05:20;0.50;;;0.50;;
21497;SDS011;10910;50.932;0.246;2022-09-12T00:07:46;0.50;;;0.50;;
21497;SDS011;10910;50.932;0.246;2022-09-12T00:10:13;0.50;;;0.50;;
21497;SDS011;10910;50.932;0.246;2022-09-12T00:12:39;0.50;;;0.50;;
21497;SDS011;10910;50.932;0.246;2022-09-12T00:15:05;0.50;;;0.50;;
21497;SDS011;10910;50.932;0.246;2022-09-12T00:17:35;0.55;;;0.55;;
21497;SDS011;10910;50.932;0.246;2022-09-12T00:20:02;0.55;;;0.55;;
21497;SDS011;10910;50.932;0.246;2022-09-12T00:22:29;0.60;;;0.60;;
21497;SDS011;10910;50.932;0.246;2022-09-12T00:24:55;0.50;;;0.50;;
21497;SDS011;10910;50.932;0.246;2022-09-12T00:27:21;0.50;;;0.50;;
21497;SDS011;10910;50.932;0.246;2022-09-12T00:29:47;0.50;;;0.50;;
21497;SDS011;10910;50.932;0.246;2022-09-12T00:32:13;0.50;;;0.50;;
21497;SDS011;10910;50.932;0.246;2022-09-12T00:34:39;0.60;;;0.60;;
21497;SDS011;10910;50.932;0.246;2022-09-12T00:37:05;0.50;;;0.50;;
21497;SDS011;10910;50.932;0.246;2022-09-12T00:39:31;0.50;;;0.50;;
21497;SDS011;10910;50.932;0.246;2022-09-12T00:41:57;0.60;;;0.60;;
21497;SDS011;10910;50.932;0.246;2022-09-12T00:46:59;0.60;;;0.60;;
21497;SDS011;10910;50.932;0.246;2022-09-12T00:52:34;0.60;;;0.60;;
21497;SDS011;10910;50.932;0.246;2022-09-12T00:57:39;0.50;;;0.50;;
21497;SDS011;10910;50.932;0.246;2022-09-12T01:00:14;0.60;;;0.60;;
21497;SDS011;10910;50.932;0.246;2022-09-12T01:02:42;0.60;;;0.60;;
21497;SDS011;10910;50.932;0.246;2022-09-12T01:05:10;0.50;;;0.50;;
21497;SDS011;10910;50.932;0.246;2022-09-12T01:07:37;0.50;;;0.50;;
21497;SDS011;10910;50.932;0.246;2022-09-12T01:10:04;0.50;;;0.50;;
21497;SDS011;10910;50.932;0.246;2022-09-12T01:12:31;0.50;;;0.50;;
21497;SDS011;10910;50.932;0.246;2022-09-12T01:14:57;0.40;;;0.40;;
21497;SDS011;10910;50.932;0.246;2022-09-12T01:17:25;0.60;;;0.60;;
21497;SDS011;10910;50.932;0.246;2022-09-12T01:25:30;0.50;;;0.50;;
21497;SDS011;10910;50.932;0.246;2022-09-12T01:33:23;0.60;;;0.60;;
21497;SDS011;10910;50.932;0.246;2022-09-12T01:36:11;0.60;;;0.60;;
21497;SDS011;10910;50.932;0.246;2022-09-12T01:38:48;0.60;;;0.60;;
21497;SDS011;10910;50.932;0.246;2022-09-12T01:46:18;0.60;;;0.60;;
21497;SDS011;10910;50.932;0.246;2022-09-12T01:48:56;0.60;;;0.60;;
21497;SDS011;10910;50.932;0.246;2022-09-12T01:51:26;0.50;;;0.50;;
21497;SDS011;10910;50.932;0.246;2022-09-12T01:54:03;0.50;;;0.50;;
21497;SDS011;10910;50.932;0.246;2022-09-12T01:56:32;0.50;;;0.50;;
21497;SDS011;10910;50.932;0.246;2022-09-12T02:01:35;0.60;;;0.60;;
21497;SDS011;10910;50.932;0.246;2022-09-12T02:04:19;0.50;;;0.50;;
21497;SDS011;10910;50.932;0.246;2022-09-12T02:06:59;0.57;;;0.57;;
21497;SDS011;10910;50.932;0.246;2022-09-12T02:09:39;0.50;;;0.50;;
21497;SDS011;10910;50.932;0.246;2022-09-12T02:12:06;0.55;;;0.55;;
21497;SDS011;10910;50.932;0.246;2022-09-12T02:14:35;0.60;;;0.60;;
21497;SDS011;10910;50.932;0.246;2022-09-12T02:17:07;0.50;;;0.50;;
21497;SDS011;10910;50.932;0.246;2022-09-12T02:19:36;0.57;;;0.57;;
21497;SDS011;10910;50.932;0.246;2022-09-12T02:22:04;0.50;;;0.50;;
21497;SDS011;10910;50.932;0.246;2022-09-12T02:24:35;0.60;;;0.60;;
21497;SDS011;10910;50.932;0.246;2022-09-12T02:29:30;0.40;;;0.40;;
21497;SDS011;10910;50.932;0.246;2022-09-12T02:31:57;0.50;;;0.50;;
21497;SDS011;10910;50.932;0.246;2022-09-12T02:37:11;0.40;;;0.40;;
21497;SDS011;10910;50.932;0.246;2022-09-12T02:39:55;0.40;;;0.40;;
21497;SDS011;10910;50.932;0.246;2022-09-12T02:42:22;0.50;;;0.50;;
21497;SDS011;10910;50.932;0.246;2022-09-12T02:44:48;0.60;;;0.60;;
21497;SDS011;10910;50.932;0.246;2022-09-12T02:47:31;0.50;;;0.50;;
21497;SDS011;10910;50.932;0.246;2022-09-12T02:50:01;0.60;;;0.60;;
21497;SDS011;10910;50.932;0.246;2022-09-12T02:52:29;0.50;;;0.50;;
21497;SDS011;10910;50.932;0.246;2022-09-12T02:54:56;0.70;;;0.70;;
21497;SDS011;10910;50.932;0.246;2022-09-12T02:57:23;0.60;;;0.60;;
21497;SDS011;10910;50.932;0.246;2022-09-12T02:59:50;0.50;;;0.50;;
21497;SDS011;10910;50.932;0.246;2022-09-12T03:12:55;0.50;;;0.50;;
21497;SDS011;10910;50.932;0.246;2022-09-12T03:18:05;0.50;;;0.50;;
21497;SDS011;10910;50.932;0.246;2022-09-12T03:23:06;0.50;;;0.50;;
21497;SDS011;10910;50.932;0.246;2022-09-12T03:25:36;0.50;;;0.50;;
21497;SDS011;10910;50.932;0.246;2022-09-12T03:28:13;0.50;;;0.50;;
21497;SDS011;10910;50.932;0.246;2022-09-12T03:30:41;0.50;;;0.50;;
21497;SDS011;10910;50.932;0.246;2022-09-12T03:33:15;0.55;;;0.55;;
21497;SDS011;10910;50.932;0.246;2022-09-12T03:35:44;0.60;;;0.60;;
21497;SDS011;10910;50.932;0.246;2022-09-12T03:38:10;0.50;;;0.50;;
21497;SDS011;10910;50.932;0.246;2022-09-12T03:40:37;0.50;;;0.50;;
21497;SDS011;10910;50.932;0.246;2022-09-12T03:43:03;0.50;;;0.50;;
21497;SDS011;10910;50.932;0.246;2022-09-12T03:45:30;0.50;;;0.50;;
21497;SDS011;10910;50.932;0.246;2022-09-12T03:47:56;0.52;;;0.52;;
21497;SDS011;10910;50.932;0.246;2022-09-12T03:50:22;0.60;;;0.60;;
21497;SDS011;10910;50.932;0.246;2022-09-12T03:52:48;0.50;;;0.50;;
21497;SDS011;10910;50.932;0.246;2022-09-12T03:55:14;0.50;;;0.50;;
21497;SDS011;10910;50.932;0.246;2022-09-12T03:57:41;0.65;;;0.65;;
21497;SDS011;10910;50.932;0.246;2022-09-12T04:00:07;0.60;;;0.60;;
21497;SDS011;10910;50.932;0.246;2022-09-12T04:02:34;0.50;;;0.50;;
21497;SDS011;10910;50.932;0.246;2022-09-12T04:05:00;0.50;;;0.50;;
21497;SDS011;10910;50.932;0.246;2022-09-12T04:07:26;0.50;;;0.50;;
21497;SDS011;10910;50.932;0.246;2022-09-12T04:09:52;0.50;;;0.50;;
21497;SDS011;10910;50.932;0.246;2022-09-12T04:12:19;0.50;;;0.50;;
21497;SDS011;10910;50.932;0.246;2022-09-12T04:14:45;0.68;;;0.68;;
21497;SDS011;10910;50.932;0.246;2022-09-12T04:17:11;0.50;;;0.50;;
21497;SDS011;10910;50.932;0.246;2022-09-12T04:19:38;0.50;;;0.50;;
21497;SDS011;10910;50.932;0.246;2022-09-12T04:22:04;0.60;;;0.60;;
21497;SDS011;10910;50.932;0.246;2022-09-12T04:24:30;0.60;;;0.60;;
21497;SDS011;10910;50.932;0.246;2022-09-12T04:26:56;0.50;;;0.50;;
21497;SDS011;10910;50.932;0.246;2022-09-12T04:29:22;0.50;;;0.50;;
21497;SDS011;10910;50.932;0.246;2022-09-12T04:31:48;0.50;;;0.50;;
21497;SDS011;10910;50.932;0.246;2022-09-12T04:34:15;0.50;;;0.50;;
21497;SDS011;10910;50.932;0.246;2022-09-12T04:36:41;0.50;;;0.50;;
21497;SDS011;10910;50.932;0.246;2022-09-12T04:39:07;0.50;;;0.50;;
21497;SDS011;10910;50.932;0.246;2022-09-12T04:41:34;0.50;;;0.50;;
21497;SDS011;10910;50.932;0.246;2022-09-12T04:44:02;0.50;;;0.50;;
21497;SDS011;10910;50.932;0.246;2022-09-12T04:46:29;0.50;;;0.50;;
21497;SDS011;10910;50.932;0.246;2022-09-12T04:48:55;0.60;;;0.60;;
21497;SDS011;10910;50.932;0.246;2022-09-12T04:51:26;0.50;;;0.50;;
21497;SDS011;10910;50.932;0.246;2022-09-12T04:53:53;0.50;;;0.50;;
21497;SDS011;10910;50.932;0.246;2022-09-12T04:56:20;0.40;;;0.40;;
21497;SDS011;10910;50.932;0.246;2022-09-12T04:58:47;0.60;;;0.60;;
21497;SDS011;10910;50.932;0.246;2022-09-12T05:01:14;0.43;;;0.43;;
21497;SDS011;10910;50.932;0.246;2022-09-12T05:03:41;0.50;;;0.50;;
21497;SDS011;10910;50.932;0.246;2022-09-12T05:06:08;0.60;;;0.60;;
21497;SDS011;10910;50.932;0.246;2022-09-12T05:08:35;0.60;;;0.60;;
21497;SDS011;10910;50.932;0.246;2022-09-12T05:11:05;0.50;;;0.50;;
21497;SDS011;10910;50.932;0.246;2022-09-12T05:13:31;0.52;;;0.52;;
21497;SDS011;10910;50.932;0.246;2022-09-12T05:15:59;0.40;;;0.40;;
21497;SDS011;10910;50.932;0.246;2022-09-12T05:18:25;0.60;;;0.60;;
21497;SDS011;10910;50.932;0.246;2022-09-12T05:20:52;0.50;;;0.50;;
21497;SDS011;10910;50.932;0.246;2022-09-12T05:23:18;0.60;;;0.60;;
21497;SDS011;10910;50.932;0.246;2022-09-12T05:25:48;0.60;;;0.60;;
21497;SDS011;10910;50.932;0.246;2022-09-12T05:28:14;0.50;;;0.50;;
21497;SDS011;10910;50.932;0.246;2022-09-12T05:30:40;0.50;;;0.50;;
21497;SDS011;10910;50.932;0.246;2022-09-12T05:33:06;0.50;;;0.50;;
21497;SDS011;10910;50.932;0.246;2022-09-12T05:35:32;0.40;;;0.40;;
21497;SDS011;10910;50.932;0.246;2022-09-12T05:37:58;0.60;;;0.60;;
21497;SDS011;10910;50.932;0.246;2022-09-12T05:40:24;0.50;;;0.50;;
21497;SDS011;10910;50.932;0.246;2022-09-12T05:42:50;0.50;;;0.50;;
21497;SDS011;10910;50.932;0.246;2022-09-12T05:45:16;0.60;;;0.60;;
21497;SDS011;10910;50.932;0.246;2022-09-12T05:47:45;0.57;;;0.57;;
21497;SDS011;10910;50.932;0.246;2022-09-12T05:50:11;0.57;;;0.57;;
21497;SDS011;10910;50.932;0.246;2022-09-12T05:52:37;0.60;;;0.60;;
21497;SDS011;10910;50.932;0.246;2022-09-12T05:55:03;0.50;;;0.50;;
21497;SDS011;10910;50.932;0.246;2022-09-12T05:57:29;0.55;;;0.55;;
21497;SDS011;10910;50.932;0.246;2022-09-12T05:59:55;0.60;;;0.60;;
21497;SDS011;10910;50.932;0.246;2022-09-12T06:02:22;0.60;;;0.60;;
21497;SDS011;10910;50.932;0.246;2022-09-12T06:04:48;0.60;;;0.60;;
21497;SDS011;10910;50.932;0.246;2022-09-12T06:07:14;0.60;;;0.60;;
21497;SDS011;10910;50.932;0.246;2022-09-12T06:09:40;0.60;;;0.60;;
21497;SDS011;10910;50.932;0.246;2022-09-12T06:12:06;0.60;;;0.60;;
21497;SDS011;10910;50.932;0.246;2022-09-12T06:14:32;0.57;;;0.57;;
21497;SDS011;10910;50.932;0.246;2022-09-12T06:16:59;0.50;;;0.50;;
21497;SDS011;10910;50.932;0.246;2022-09-12T06:19:25;0.60;;;0.60;;
21497;SDS011;10910;50.932;0.246;2022-09-12T06:21:52;0.50;;;0.50;;
21497;SDS011;10910;50.932;0.246;2022-09-12T06:24:19;0.40;;;0.40;;
21497;SDS011;10910;50.932;0.246;2022-09-12T06:26:46;0.50;;;0.50;;
21497;SDS011;10910;50.932;0.246;2022-09-12T06:29:12;0.47;;;0.47;;
21497;SDS011;10910;50.932;0.246;2022-09-12T06:31:39;0.60;;;0.60;;
21497;SDS011;10910;50.932;0.246;2022-09-12T06:34:06;0.47;;;0.47;;
21497;SDS011;10910;50.932;0.246;2022-09-12T06:36:44;0.60;;;0.60;;
21497;SDS011;10910;50.932;0.246;2022-09-12T06:39:15;0.50;;;0.50;;
21497;SDS011;10910;50.932;0.246;2022-09-12T06:41:42;0.50;;;0.50;;
21497;SDS011;10910;50.932;0.246;2022-09-12T06:44:14;0.50;;;0.50;;
21497;SDS011;10910;50.932;0.246;2022-09-12T06:46:41;0.50;;;0.50;;
21497;SDS011;10910;50.932;0.246;2022-09-12T06:49:09;0.50;;;0.50;;
21497;SDS011;10910;50.932;0.246;2022-09-12T06:51:35;0.50;;;0.50;;
21497;SDS011;10910;50.932;0.246;2022-09-12T06:54:02;0.50;;;0.50;;
21497;SDS011;10910;50.932;0.246;2022-09-12T06:56:28;0.50;;;0.50;;
21497;SDS011;10910;50.932;0.246;2022-09-12T06:58:55;0.50;;;0.50;;
21497;SDS011;10910;50.932;0.246;2022-09-12T07:01:25;0.40;;;0.40;;
21497;SDS011;10910;50.932;0.246;2022-09-12T07:03:52;0.40;;;0.40;;
21497;SDS011;10910;50.932;0.246;2022-09-12T07:06:20;0.60;;;0.60;;
21497;SDS011;10910;50.932;0.246;2022-09-12T07:08:48;0.50;;;0.50;;
21497;SDS011;10910;50.932;0.246;2022-09-12T07:13:41;0.50;;;0.50;;
21497;SDS011;10910;50.932;0.246;2022-09-12T07:16:07;0.50;;;0.50;;
21497;SDS011;10910;50.932;0.246;2022-09-12T07:18:35;0.50;;;0.50;;
21497;SDS011;10910;50.932;0.246;2022-09-12T07:21:08;0.40;;;0.40;;
21497;SDS011;10910;50.932;0.246;2022-09-12T07:23:35;0.60;;;0.60;;
21497;SDS011;10910;50.932;0.246;2022-09-12T07:26:01;0.50;;;0.50;;
21497;SDS011;10910;50.932;0.246;2022-09-12T07:28:29;0.50;;;0.50;;
21497;SDS011;10910;50.932;0.246;2022-09-12T07:30:56;0.60;;;0.60;;
21497;SDS011;10910;50.932;0.246;2022-09-12T07:33:25;0.50;;;0.50;;
21497;SDS011;10910;50.932;0.246;2022-09-12T07:35:51;0.40;;;0.40;;
21497;SDS011;10910;50.932;0.246;2022-09-12T07:38:20;0.50;;;0.50;;
21497;SDS011;10910;50.932;0.246;2022-09-12T07:40:47;0.50;;;0.50;;
21497;SDS011;10910;50.932;0.246;2022-09-12T07:43:13;0.50;;;0.50;;
21497;SDS011;10910;50.932;0.246;2022-09-12T07:45:39;0.43;;;0.43;;
21497;SDS011;10910;50.932;0.246;2022-09-12T07:48:06;0.40;;;0.40;;
21497;SDS011;10910;50.932;0.246;2022-09-12T07:50:32;0.50;;;0.50;;
21497;SDS011;10910;50.932;0.246;2022-09-12T07:53:00;0.50;;;0.50;;
21497;SDS011;10910;50.932;0.246;2022-09-12T07:55:28;0.50;;;0.50;;
21497;SDS011;10910;50.932;0.246;2022-09-12T07:57:54;0.40;;;0.40;;
21497;SDS011;10910;50.932;0.246;2022-09-12T08:00:21;0.50;;;0.50;;
21497;SDS011;10910;50.932;0.246;2022-09-12T08:02:50;0.40;;;0.40;;
21497;SDS011;10910;50.932;0.246;2022-09-12T08:05:21;0.40;;;0.40;;
21497;SDS011;10910;50.932;0.246;2022-09-12T08:07:47;0.43;;;0.43;;
21497;SDS011;10910;50.932;0.246;2022-09-12T08:10:13;0.40;;;0.40;;
21497;SDS011;10910;50.932;0.246;2022-09-12T08:12:40;0.50;;;0.50;;
21497;SDS011;10910;50.932;0.246;2022-09-12T08:15:06;0.40;;;0.40;;
21497;SDS011;10910;50.932;0.246;2022-09-12T08:17:32;0.50;;;0.50;;
21497;SDS011;10910;50.932;0.246;2022-09-12T08:19:58;0.40;;;0.40;;
21497;SDS011;10910;50.932;0.246;2022-09-12T08:22:24;0.40;;;0.40;;
21497;SDS011;10910;50.932;0.246;2022-09-12T08:24:50;0.32;;;0.32;;
21497;SDS011;10910;50.932;0.246;2022-09-12T08:27:16;0.50;;;0.50;;
21497;SDS011;10910;50.932;0.246;2022-09-12T08:29:42;0.40;;;0.40;;
21497;SDS011;10910;50.932;0.246;2022-09-12T08:32:09;0.50;;;0.50;;
21497;SDS011;10910;50.932;0.246;2022-09-12T08:34:35;0.50;;;0.50;;
21497;SDS011;10910;50.932;0.246;2022-09-12T08:37:01;0.45;;;0.45;;
21497;SDS011;10910;50.932;0.246;2022-09-12T08:39:28;0.40;;;0.40;;
21497;SDS011;10910;50.932;0.246;2022-09-12T08:41:58;0.40;;;0.40;;
21497;SDS011;10910;50.932;0.246;2022-09-12T08:47:49;0.30;;;0.30;;
21497;SDS011;10910;50.932;0.246;2022-09-12T08:50:17;0.38;;;0.38;;
21497;SDS011;10910;50.932;0.246;2022-09-12T08:55:25;0.30;;;0.30;;
21497;SDS011;10910;50.932;0.246;2022-09-12T08:57:52;0.30;;;0.30;;
21497;SDS011;10910;50.932;0.246;2022-09-12T09:00:19;0.40;;;0.40;;
21497;SDS011;10910;50.932;0.246;2022-09-12T09:05:20;0.30;;;0.30;;
21497;SDS011;10910;50.932;0.246;2022-09-12T09:11:06;0.30;;;0.30;;
21497;SDS011;10910;50.932;0.246;2022-09-12T09:13:49;0.30;;;0.30;;
21497;SDS011;10910;50.932;0.246;2022-09-12T09:16:40;0.30;;;0.30;;
21497;SDS011;10910;50.932;0.246;2022-09-12T09:19:09;0.30;;;0.30;;
21497;SDS011;10910;50.932;0.246;2022-09-12T09:21:41;0.30;;;0.30;;
21497;SDS011;10910;50.932;0.246;2022-09-12T09:24:27;0.30;;;0.30;;
21497;SDS011;10910;50.932;0.246;2022-09-12T09:26:59;0.30;;;0.30;;
21497;SDS011;10910;50.932;0.246;2022-09-12T09:29:34;0.20;;;0.20;;
21497;SDS011;10910;50.932;0.246;2022-09-12T09:32:09;0.20;;;0.20;;
21497;SDS011;10910;50.932;0.246;2022-09-12T09:34:41;0.20;;;0.20;;
21497;SDS011;10910;50.932;0.246;2022-09-12T09:44:57;0.20;;;0.20;;
21497;SDS011;10910;50.932;0.246;2022-09-12T09:47:26;0.30;;;0.30;;
21497;SDS011;10910;50.932;0.246;2022-09-12T09:49:52;0.20;;;0.20;;
21497;SDS011;10910;50.932;0.246;2022-09-12T09:52:20;0.28;;;0.28;;
21497;SDS011;10910;50.932;0.246;2022-09-12T09:54:50;0.20;;;0.20;;
21497;SDS011;10910;50.932;0.246;2022-09-12T09:57:36;0.30;;;0.30;;
21497;SDS011;10910;50.932;0.246;2022-09-12T10:08:26;0.30;;;0.30;;
21497;SDS011;10910;50.932;0.246;2022-09-12T10:11:17;0.30;;;0.30;;
21497;SDS011;10910;50.932;0.246;2022-09-12T10:16:20;0.20;;;0.20;;
21497;SDS011;10910;50.932;0.246;2022-09-12T10:18:52;0.20;;;0.20;;
21497;SDS011;10910;50.932;0.246;2022-09-12T10:21:29;0.30;;;0.30;;
21497;SDS011;10910;50.932;0.246;2022-09-12T10:26:45;0.40;;;0.40;;
21497;SDS011;10910;50.932;0.246;2022-09-12T10:29:33;0.20;;;0.20;;
21497;SDS011;10910;50.932;0.246;2022-09-12T10:35:01;0.20;;;0.20;;
21497;SDS011;10910;50.932;0.246;2022-09-12T10:37:32;0.20;;;0.20;;
21497;SDS011;10910;50.932;0.246;2022-09-12T10:40:04;0.20;;;0.20;;
21497;SDS011;10910;50.932;0.246;2022-09-12T10:42:48;0.20;;;0.20;;
21497;SDS011;10910;50.932;0.246;2022-09-12T10:47:51;0.30;;;0.30;;
21497;SDS011;10910;50.932;0.246;2022-09-12T10:52:51;0.40;;;0.40;;
21497;SDS011;10910;50.932;0.246;2022-09-12T10:55:18;0.20;;;0.20;;
21497;SDS011;10910;50.932;0.246;2022-09-12T11:00:18;0.20;;;0.20;;
21497;SDS011;10910;50.932;0.246;2022-09-12T11:08:36;0.30;;;0.30;;
21497;SDS011;10910;50.932;0.246;2022-09-12T11:11:11;0.30;;;0.30;;
21497;SDS011;10910;50.932;0.246;2022-09-12T11:16:24;0.30;;;0.30;;
21497;SDS011;10910;50.932;0.246;2022-09-12T11:26:32;0.57;;;0.57;;
21497;SDS011;10910;50.932;0.246;2022-09-12T11:34:53;0.40;;;0.40;;
21497;SDS011;10910;50.932;0.246;2022-09-12T11:37:25;0.40;;;0.40;;
21497;SDS011;10910;50.932;0.246;2022-09-12T11:39:55;0.30;;;0.30;;
21497;SDS011;10910;50.932;0.246;2022-09-12T11:42:26;0.50;;;0.50;;
21497;SDS011;10910;50.932;0.246;2022-09-12T11:44:59;0.30;;;0.30;;
21497;SDS011;10910;50.932;0.246;2022-09-12T11:47:28;0.30;;;0.30;;
21497;SDS011;10910;50.932;0.246;2022-09-12T11:49:55;0.30;;;0.30;;
21497;SDS011;10910;50.932;0.246;2022-09-12T11:52:23;0.30;;;0.30;;
21497;SDS011;10910;50.932;0.246;2022-09-12T11:54:51;0.20;;;0.20;;
21497;SDS011;10910;50.932;0.246;2022-09-12T11:57:38;0.20;;;0.20;;
21497;SDS011;10910;50.932;0.246;2022-09-12T12:08:14;0.10;;;0.10;;
21497;SDS011;10910;50.932;0.246;2022-09-12T12:10:41;0.20;;;0.20;;
21497;SDS011;10910;50.932;0.246;2022-09-12T12:15:43;0.20;;;0.20;;
21497;SDS011;10910;50.932;0.246;2022-09-12T12:18:18;0.20;;;0.20;;
21497;SDS011;10910;50.932;0.246;2022-09-12T12:20:46;0.10;;;0.10;;
21497;SDS011;10910;50.932;0.246;2022-09-12T12:25:53;0.10;;;0.10;;
21497;SDS011;10910;50.932;0.246;2022-09-12T12:31:07;0.20;;;0.20;;
21497;SDS011;10910;50.932;0.246;2022-09-12T12:36:07;0.20;;;0.20;;
21497;SDS011;10910;50.932;0.246;2022-09-12T12:38:42;0.20;;;0.20;;
21497;SDS011;10910;50.932;0.246;2022-09-12T12:43:44;0.10;;;0.10;;
21497;SDS011;10910;50.932;0.246;2022-09-12T12:46:11;0.20;;;0.20;;
21497;SDS011;10910;50.932;0.246;2022-09-12T12:51:25;0.20;;;0.20;;
21497;SDS011;10910;50.932;0.246;2022-09-12T12:53:52;0.20;;;0.20;;
21497;SDS011;10910;50.932;0.246;2022-09-12T12:56:25;0.17;;;0.17;;
21497;SDS011;10910;50.932;0.246;2022-09-12T12:58:58;0.20;;;0.20;;
21497;SDS011;10910;50.932;0.246;2022-09-12T13:01:24;0.20;;;0.20;;
21497;SDS011;10910;50.932;0.246;2022-09-12T13:04:01;0.10;;;0.10;;
21497;SDS011;10910;50.932;0.246;2022-09-12T13:06:33;0.15;;;0.15;;
21497;SDS011;10910;50.932;0.246;2022-09-12T13:09:03;0.20;;;0.20;;
21497;SDS011;10910;50.932;0.246;2022-09-12T13:11:35;0.20;;;0.20;;
21497;SDS011;10910;50.932;0.246;2022-09-12T13:14:02;0.20;;;0.20;;
21497;SDS011;10910;50.932;0.246;2022-09-12T13:16:34;0.20;;;0.20;;
21497;SDS011;10910;50.932;0.246;2022-09-12T13:19:16;0.20;;;0.20;;
21497;SDS011;10910;50.932;0.246;2022-09-12T13:24:25;0.10;;;0.10;;
21497;SDS011;10910;50.932;0.246;2022-09-12T13:26:51;0.10;;;0.10;;
21497;SDS011;10910;50.932;0.246;2022-09-12T13:29:19;0.10;;;0.10;;
21497;SDS011;10910;50.932;0.246;2022-09-12T13:31:46;0.10;;;0.10;;
21497;SDS011;10910;50.932;0.246;2022-09-12T13:34:23;0.10;;;0.10;;
21497;SDS011;10910;50.932;0.246;2022-09-12T13:36:55;0.20;;;0.20;;
21497;SDS011;10910;50.932;0.246;2022-09-12T13:39:26;0.20;;;0.20;;
21497;SDS011;10910;50.932;0.246;2022-09-12T13:47:25;0.20;;;0.20;;
21497;SDS011;10910;50.932;0.246;2022-09-12T13:49:56;0.10;;;0.10;;
21497;SDS011;10910;50.932;0.246;2022-09-12T13:52:27;0.10;;;0.10;;
21497;SDS011;10910;50.932;0.246;2022-09-12T13:54:55;0.20;;;0.20;;
21497;SDS011;10910;50.932;0.246;2022-09-12T13:57:26;0.10;;;0.10;;
21497;SDS011;10910;50.932;0.246;2022-09-12T13:59:55;0.10;;;0.10;;
21497;SDS011;10910;50.932;0.246;2022-09-12T14:02:23;0.10;;;0.10;;
21497;SDS011;10910;50.932;0.246;2022-09-12T14:04:50;0.20;;;0.20;;
21497;SDS011;10910;50.932;0.246;2022-09-12T14:07:47;0.15;;;0.15;;
21497;SDS011;10910;50.932;0.246;2022-09-12T14:10:26;0.10;;;0.10;;
21497;SDS011;10910;50.932;0.246;2022-09-12T14:12:54;0.10;;;0.10;;
21497;SDS011;10910;50.932;0.246;2022-09-12T14:15:22;0.15;;;0.15;;
21497;SDS011;10910;50.932;0.246;2022-09-12T14:17:53;0.30;;;0.30;;
21497;SDS011;10910;50.932;0.246;2022-09-12T14:20:20;0.28;;;0.28;;
21497;SDS011;10910;50.932;0.246;2022-09-12T14:22:47;0.20;;;0.20;;
21497;SDS011;10910;50.932;0.246;2022-09-12T14:25:15;0.20;;;0.20;;
21497;SDS011;10910;50.932;0.246;2022-09-12T14:27:44;0.20;;;0.20;;
21497;SDS011;10910;50.932;0.246;2022-09-12T14:30:19;0.10;;;0.10;;
21497;SDS011;10910;50.932;0.246;2022-09-12T14:35:33;0.28;;;0.28;;
21497;SDS011;10910;50.932;0.246;2022-09-12T14:38:17;0.20;;;0.20;;
21497;SDS011;10910;50.932;0.246;2022-09-12T14:40:58;0.20;;;0.20;;
21497;SDS011;10910;50.932;0.246;2022-09-12T14:43:30;0.20;;;0.20;;
21497;SDS011;10910;50.932;0.246;2022-09-12T14:46:06;0.20;;;0.20;;
21497;SDS011;10910;50.932;0.246;2022-09-12T14:48:42;0.10;;;0.10;;
21497;SDS011;10910;50.932;0.246;2022-09-12T14:51:26;0.20;;;0.20;;
21497;SDS011;10910;50.932;0.246;2022-09-12T14:53:56;0.13;;;0.13;;
21497;SDS011;10910;50.932;0.246;2022-09-12T14:56:37;0.15;;;0.15;;
21497;SDS011;10910;50.932;0.246;2022-09-12T15:02:09;0.20;;;0.20;;
21497;SDS011;10910;50.932;0.246;2022-09-12T15:07:35;0.28;;;0.28;;
21497;SDS011;10910;50.932;0.246;2022-09-12T15:10:05;0.55;;;0.55;;
21497;SDS011;10910;50.932;0.246;2022-09-12T15:12:40;0.40;;;0.40;;
21497;SDS011;10910;50.932;0.246;2022-09-12T15:15:12;0.20;;;0.20;;
21497;SDS011;10910;50.932;0.246;2022-09-12T15:17:39;0.20;;;0.20;;
21497;SDS011;10910;50.932;0.246;2022-09-12T15:20:06;0.20;;;0.20;;
21497;SDS011;10910;50.932;0.246;2022-09-12T15:22:32;0.20;;;0.20;;
21497;SDS011;10910;50.932;0.246;2022-09-12T15:24:59;0.20;;;0.20;;
21497;SDS011;10910;50.932;0.246;2022-09-12T15:27:25;0.20;;;0.20;;
21497;SDS011;10910;50.932;0.246;2022-09-12T15:29:52;0.30;;;0.30;;
21497;SDS011;10910;50.932;0.246;2022-09-12T15:32:21;0.20;;;0.20;;
21497;SDS011;10910;50.932;0.246;2022-09-12T15:34:48;0.20;;;0.20;;
21497;SDS011;10910;50.932;0.246;2022-09-12T15:37:14;0.20;;;0.20;;
21497;SDS011;10910;50.932;0.246;2022-09-12T15:39:41;0.20;;;0.20;;
21497;SDS011;10910;50.932;0.246;2022-09-12T15:42:08;0.28;;;0.28;;
21497;SDS011;10910;50.932;0.246;2022-09-12T15:44:35;0.30;;;0.30;;
21497;SDS011;10910;50.932;0.246;2022-09-12T15:47:02;0.30;;;0.30;;
21497;SDS011;10910;50.932;0.246;2022-09-12T15:49:28;0.20;;;0.20;;
21497;SDS011;10910;50.932;0.246;2022-09-12T15:51:55;0.30;;;0.30;;
21497;SDS011;10910;50.932;0.246;2022-09-12T15:54:21;0.30;;;0.30;;
21497;SDS011;10910;50.932;0.246;2022-09-12T15:56:47;0.30;;;0.30;;
21497;SDS011;10910;50.932;0.246;2022-09-12T15:59:13;0.30;;;0.30;;
21497;SDS011;10910;50.932;0.246;2022-09-12T16:01:39;0.30;;;0.30;;
21497;SDS011;10910;50.932;0.246;2022-09-12T16:04:16;0.30;;;0.30;;
21497;SDS011;10910;50.932;0.246;2022-09-12T16:06:44;0.30;;;0.30;;
21497;SDS011;10910;50.932;0.246;2022-09-12T16:09:10;0.30;;;0.30;;
21497;SDS011;10910;50.932;0.246;2022-09-12T16:11:36;0.40;;;0.40;;
21497;SDS011;10910;50.932;0.246;2022-09-12T16:14:03;0.40;;;0.40;;
21497;SDS011;10910;50.932;0.246;2022-09-12T16:16:29;0.30;;;0.30;;
21497;SDS011;10910;50.932;0.246;2022-09-12T16:18:55;0.30;;;0.30;;
21497;SDS011;10910;50.932;0.246;2022-09-12T16:21:21;0.30;;;0.30;;
21497;SDS011;10910;50.932;0.246;2022-09-12T16:23:48;0.30;;;0.30;;
21497;SDS011;10910;50.932;0.246;2022-09-12T16:26:14;0.30;;;0.30;;
21497;SDS011;10910;50.932;0.246;2022-09-12T16:28:40;0.30;;;0.30;;
21497;SDS011;10910;50.932;0.246;2022-09-12T16:31:07;0.40;;;0.40;;
21497;SDS011;10910;50.932;0.246;2022-09-12T16:33:36;0.40;;;0.40;;
21497;SDS011;10910;50.932;0.246;2022-09-12T16:36:03;0.30;;;0.30;;
21497;SDS011;10910;50.932;0.246;2022-09-12T16:38:30;0.38;;;0.38;;
21497;SDS011;10910;50.932;0.246;2022-09-12T16:41:01;0.30;;;0.30;;
21497;SDS011;10910;50.932;0.246;2022-09-12T16:43:29;0.30;;;0.30;;
21497;SDS011;10910;50.932;0.246;2022-09-12T16:46:38;0.40;;;0.40;;
21497;SDS011;10910;50.932;0.246;2022-09-12T16:48:46;0.40;;;0.40;;
21497;SDS011;10910;50.932;0.246;2022-09-12T16:51:13;0.30;;;0.30;;
21497;SDS011;10910;50.932;0.246;2022-09-12T16:53:40;0.30;;;0.30;;
21497;SDS011;10910;50.932;0.246;2022-09-12T16:56:07;0.30;;;0.30;;
21497;SDS011;10910;50.932;0.246;2022-09-12T16:58:37;0.30;;;0.30;;
21497;SDS011;10910;50.932;0.246;2022-09-12T17:01:04;0.30;;;0.30;;
21497;SDS011;10910;50.932;0.246;2022-09-12T17:03:32;0.30;;;0.30;;
21497;SDS011;10910;50.932;0.246;2022-09-12T17:05:58;0.20;;;0.20;;
21497;SDS011;10910;50.932;0.246;2022-09-12T17:08:25;0.30;;;0.30;;
21497;SDS011;10910;50.932;0.246;2022-09-12T17:10:51;0.30;;;0.30;;
21497;SDS011;10910;50.932;0.246;2022-09-12T17:13:17;0.50;;;0.50;;
21497;SDS011;10910;50.932;0.246;2022-09-12T17:15:43;0.30;;;0.30;;
21497;SDS011;10910;50.932;0.246;2022-09-12T17:18:09;0.30;;;0.30;;
21497;SDS011;10910;50.932;0.246;2022-09-12T17:20:36;0.30;;;0.30;;
21497;SDS011;10910;50.932;0.246;2022-09-12T17:23:02;0.30;;;0.30;;
21497;SDS011;10910;50.932;0.246;2022-09-12T17:25:28;0.30;;;0.30;;
21497;SDS011;10910;50.932;0.246;2022-09-12T17:27:54;0.40;;;0.40;;
21497;SDS011;10910;50.932;0.246;2022-09-12T17:30:20;0.30;;;0.30;;
21497;SDS011;10910;50.932;0.246;2022-09-12T17:32:46;0.30;;;0.30;;
21497;SDS011;10910;50.932;0.246;2022-09-12T17:35:12;0.35;;;0.35;;